Time;durP1;ratioP1;P1;durP2;ratioP2;P2;SDS_P1;SDS_P2;PMS_P1;PMS_P2;Temp;Humidity;BMP_temperature;BMP_pressure;BME280_temperature;BME280_humidity;BME280_pressure;Samples;Min_cycle;Max_cycle;Signal;HPM_P1;HPM_P2
2023/04/19 04:22:32;;;;;;;12.32;6.40;;;;;;;9.18;96.49;100732.13;5089407;28;20328;-69
2023/04/19 04:24:59;;;;;;;10.95;6.35;;;;;;;9.21;95.93;100739.81;5071568;28;20593;-70
2023/04/19 04:27:30;;;;;;;12.48;5.90;;;;;;;9.28;95.64;100732.06;5067718;28;20048;-69
2023/04/19 04:29:56;;;;;;;9.93;5.13;;;;;;;9.30;95.33;100738.06;5067919;28;20040;-70
2023/04/19 04:32:22;;;;;;;9.98;5.70;;;;;;;9.32;95.74;100738.72;5051381;28;20028;-70
2023/04/19 04:34:51;;;;;;;14.60;6.03;;;;;;;9.36;94.99;100740.09;5067903;28;20033;-69
2023/04/19 04:37:25;;;;;;;9.43;5.53;;;;;;;9.40;94.15;100739.66;5067414;28;20037;-70
2023/04/19 04:39:51;;;;;;;10.98;5.97;;;;;;;9.33;94.52;100737.75;5067807;28;20032;-69
2023/04/19 04:42:17;;;;;;;10.85;5.07;;;;;;;9.39;94.65;100735.31;5067554;28;20041;-69
2023/04/19 04:44:43;;;;;;;13.05;5.55;;;;;;;9.40;94.42;100741.47;5067674;28;20041;-69
2023/04/19 04:47:11;;;;;;;9.75;5.70;;;;;;;9.36;94.89;100735.63;5067280;28;20049;-69
2023/04/19 04:49:42;;;;;;;10.02;4.72;;;;;;;9.34;95.13;100739.44;5051674;28;20497;-69
2023/04/19 04:52:08;;;;;;;8.85;5.30;;;;;;;9.40;94.67;100739.66;5067487;28;20033;-69
2023/04/19 04:54:40;;;;;;;7.80;4.63;;;;;;;9.36;94.50;100730.28;5067481;28;20086;-69
2023/04/19 04:57:15;;;;;;;13.18;6.22;;;;;;;9.38;94.39;100738.09;5067017;28;20076;-68
2023/04/19 04:59:41;;;;;;;10.48;5.75;;;;;;;9.44;93.71;100746.31;5067365;28;20434;-68
2023/04/19 05:02:06;;;;;;;15.05;6.35;;;;;;;9.41;94.96;100749.28;5067160;28;20037;-68
2023/04/19 05:04:32;;;;;;;8.85;5.00;;;;;;;9.43;94.18;100741.97;5067215;28;20516;-69
2023/04/19 05:06:57;;;;;;;10.55;5.38;;;;;;;9.47;93.81;100748.69;5066924;28;20044;-69
2023/04/19 05:09:25;;;;;;;7.43;4.28;;;;;;;9.45;93.96;100745.34;5067049;28;20498;-69
2023/04/19 05:11:51;;;;;;;11.82;5.78;;;;;;;9.49;93.91;100748.50;5068427;28;20031;-69
2023/04/19 05:14:16;;;;;;;10.95;5.82;;;;;;;9.47;93.52;100739.88;5065394;28;20508;-68
2023/04/19 05:16:42;;;;;;;12.38;4.90;;;;;;;9.52;93.31;100737.59;5066192;28;20060;-69
2023/04/19 05:19:07;;;;;;;11.98;4.85;;;;;;;9.48;93.73;100738.88;5065995;28;20029;-68
2023/04/19 05:21:39;;;;;;;8.98;4.82;;;;;;;9.52;94.17;100741.06;5066712;28;20029;-69
2023/04/19 05:24:08;;;;;;;9.87;4.17;;;;;;;9.59;92.94;100743.13;5066811;28;20037;-68
2023/04/19 05:26:37;;;;;;;10.35;5.28;;;;;;;9.59;92.55;100740.47;5066616;28;20301;-68
2023/04/19 05:29:04;;;;;;;9.30;5.50;;;;;;;9.65;92.53;100747.78;5066387;28;20033;-68
2023/04/19 05:31:40;;;;;;;10.73;5.30;;;;;;;9.67;92.18;100751.16;5066059;28;20029;-68
2023/04/19 05:34:15;;;;;;;8.35;4.65;;;;;;;9.68;92.22;100751.00;5053162;28;20041;-68
2023/04/19 05:36:41;;;;;;;8.77;5.30;;;;;;;9.76;92.03;100753.69;5053204;28;20033;-69
2023/04/19 05:39:08;;;;;;;8.70;5.22;;;;;;;9.76;92.11;100752.88;5053027;28;20029;-69
2023/04/19 05:41:34;;;;;;;8.63;5.63;;;;;;;9.75;92.30;100748.53;5053169;28;20037;-69
2023/04/19 05:43:59;;;;;;;9.43;5.10;;;;;;;9.82;91.43;100751.41;5053089;28;20110;-69
2023/04/19 05:46:25;;;;;;;8.60;5.03;;;;;;;9.80;91.20;100751.59;5054436;28;20456;-69
2023/04/19 05:48:51;;;;;;;11.75;5.97;;;;;;;9.94;91.13;100750.16;5052752;28;20040;-69
2023/04/19 05:51:27;;;;;;;9.27;5.45;;;;;;;10.03;90.15;100754.53;5054510;28;20490;-69
2023/04/19 05:54:04;;;;;;;9.60;5.03;;;;;;;10.16;89.20;100754.13;5053141;28;20048;-70
2023/04/19 05:56:30;;;;;;;8.43;5.47;;;;;;;10.16;88.76;100765.59;5052881;28;20041;-70
2023/04/19 05:58:55;;;;;;;8.75;5.18;;;;;;;10.18;88.84;100765.47;5052530;28;20132;-69
2023/04/19 06:01:22;;;;;;;9.90;5.70;;;;;;;10.27;87.89;100759.22;5052786;28;20516;-69
2023/04/19 06:03:51;;;;;;;7.47;4.23;;;;;;;10.40;87.85;100764.94;5052890;28;20061;-69
2023/04/19 06:06:18;;;;;;;8.25;4.35;;;;;;;10.44;87.50;100763.63;5052692;28;20279;-69
2023/04/19 06:08:44;;;;;;;8.27;5.50;;;;;;;10.50;87.16;100767.47;5053817;28;20052;-69
2023/04/19 06:11:09;;;;;;;10.57;5.53;;;;;;;10.56;85.52;100750.81;5054016;28;20033;-69
2023/04/19 06:13:35;;;;;;;7.70;5.03;;;;;;;10.65;85.39;100767.69;5053966;28;20509;-69
2023/04/19 06:16:02;;;;;;;8.93;4.50;;;;;;;10.63;85.48;100759.00;5052458;28;20076;-70
2023/04/19 06:18:27;;;;;;;6.90;4.40;;;;;;;10.67;85.11;100763.88;5052250;28;20094;-69
2023/04/19 06:20:53;;;;;;;6.60;4.07;;;;;;;10.71;85.15;100767.88;5053844;28;20470;-70
2023/04/19 06:23:18;;;;;;;7.72;4.95;;;;;;;10.74;84.63;100764.06;5053714;28;20064;-69
2023/04/19 06:25:44;;;;;;;8.25;4.63;;;;;;;10.72;84.63;100766.88;5053644;28;20076;-70
2023/04/19 06:28:09;;;;;;;8.32;4.55;;;;;;;10.81;83.70;100762.41;5053315;28;20041;-67
2023/04/19 06:30:35;;;;;;;8.50;4.60;;;;;;;10.81;83.79;100767.75;5053579;28;20542;-68
2023/04/19 06:33:00;;;;;;;8.30;4.18;;;;;;;10.81;84.24;100759.75;5053562;28;20048;-69
2023/04/19 06:35:26;;;;;;;7.07;4.90;;;;;;;11.02;82.63;100761.97;5053489;28;20094;-69
2023/04/19 06:37:51;;;;;;;7.10;4.90;;;;;;;11.10;82.19;100760.16;5053190;28;20490;-69
2023/04/19 06:40:17;;;;;;;6.03;4.13;;;;;;;11.10;82.21;100757.50;5053428;28;20036;-69
2023/04/19 06:42:42;;;;;;;7.90;4.97;;;;;;;11.19;82.00;100752.16;5052020;28;20041;-69
2023/04/19 06:45:08;;;;;;;6.70;4.03;;;;;;;11.30;81.65;100759.84;5052208;28;20071;-68
2023/04/19 06:47:33;;;;;;;7.80;4.15;;;;;;;11.31;80.23;100761.50;5052955;28;20409;-62
2023/04/19 06:49:59;;;;;;;10.40;4.80;;;;;;;11.25;81.06;100756.84;5052085;28;20033;-62
2023/04/19 06:52:25;;;;;;;7.47;4.07;;;;;;;11.18;81.32;100751.34;5053185;28;20502;-61
2023/04/19 06:54:50;;;;;;;7.43;4.70;;;;;;;11.16;81.40;100755.19;5053101;28;20043;-62
2023/04/19 06:57:16;;;;;;;7.90;4.75;;;;;;;11.08;81.82;100763.97;5052731;28;20112;-62
2023/04/19 06:59:42;;;;;;;7.70;4.75;;;;;;;11.21;80.29;100760.81;5053041;28;20090;-61
2023/04/19 07:02:07;;;;;;;9.18;4.90;;;;;;;11.29;80.64;100768.84;5053000;28;20036;-64
2023/04/19 07:04:33;;;;;;;6.55;4.40;;;;;;;11.23;79.76;100754.34;5052945;28;20082;-63
2023/04/19 07:06:59;;;;;;;7.07;3.78;;;;;;;11.14;79.97;100755.31;5052552;28;20402;-65
2023/04/19 07:09:25;;;;;;;7.22;4.45;;;;;;;11.22;79.86;100758.03;5052701;28;20045;-63
2023/04/19 07:11:50;;;;;;;7.05;4.28;;;;;;;11.35;79.26;100762.88;5052854;28;20052;-64
2023/04/19 07:14:18;;;;;;;5.78;3.72;;;;;;;11.23;80.31;100764.19;5052722;28;20037;-64
2023/04/19 07:16:44;;;;;;;7.32;4.13;;;;;;;11.33;80.74;100763.00;5052506;28;20043;-64
2023/04/19 07:19:10;;;;;;;8.23;4.63;;;;;;;11.40;79.72;100764.00;5052526;28;20040;-64
2023/04/19 07:21:37;;;;;;;6.15;3.70;;;;;;;11.27;79.99;100763.66;5052567;28;20032;-64
2023/04/19 07:24:03;;;;;;;8.35;4.60;;;;;;;11.55;79.44;100760.69;5051447;28;20036;-63
2023/04/19 07:26:29;;;;;;;8.30;4.15;;;;;;;11.61;78.14;100747.53;5052475;28;20375;-62
2023/04/19 07:28:54;;;;;;;7.20;4.00;;;;;;;11.68;78.69;100745.03;5051038;28;20076;-64
2023/04/19 07:31:20;;;;;;;5.03;4.00;;;;;;;11.73;78.26;100745.31;5052382;28;20164;-64
2023/04/19 07:33:45;;;;;;;6.63;3.95;;;;;;;11.71;78.38;100746.50;5052391;28;20048;-65
2023/04/19 07:36:11;;;;;;;5.20;3.50;;;;;;;11.83;78.17;100745.19;5052246;28;20387;-65
2023/04/19 07:38:36;;;;;;;4.93;3.67;;;;;;;12.00;77.64;100757.53;5052097;28;20047;-64
2023/04/19 07:41:04;;;;;;;7.88;4.20;;;;;;;12.04;77.61;100736.63;5052298;28;20563;-64
2023/04/19 07:43:29;;;;;;;6.22;3.92;;;;;;;12.15;74.92;100746.97;5052262;28;20040;-64
2023/04/19 07:45:54;;;;;;;6.53;4.10;;;;;;;12.19;75.70;100740.25;5052257;28;20029;-64
2023/04/19 07:48:20;;;;;;;5.05;3.63;;;;;;;12.42;75.16;100735.84;5050794;28;20043;-65
2023/04/19 07:50:45;;;;;;;6.50;3.65;;;;;;;12.45;73.28;100735.50;5052395;28;20056;-62
2023/04/19 07:53:11;;;;;;;6.35;3.53;;;;;;;12.54;72.66;100746.97;5052341;28;20078;-64
2023/04/19 07:55:36;;;;;;;5.43;3.55;;;;;;;12.54;72.92;100733.63;5051725;28;20039;-64
2023/04/19 07:58:02;;;;;;;7.07;3.65;;;;;;;12.61;73.12;100729.25;5051736;28;20033;-64
2023/04/19 08:00:28;;;;;;;5.10;3.47;;;;;;;12.58;73.22;100728.75;5052001;28;20291;-63
2023/04/19 08:02:55;;;;;;;4.32;3.30;;;;;;;12.50;72.52;100725.09;5052232;28;20485;-64
2023/04/19 08:05:22;;;;;;;5.65;3.55;;;;;;;12.55;72.81;100729.94;5051980;28;20409;-64
2023/04/19 08:07:47;;;;;;;5.82;3.08;;;;;;;12.75;71.72;100723.16;5051820;28;20025;-63
2023/04/19 08:10:14;;;;;;;5.05;3.38;;;;;;;12.86;71.30;100721.94;5051425;28;20039;-66
2023/04/19 08:12:40;;;;;;;6.55;3.90;;;;;;;12.47;71.90;100720.13;5052036;28;20029;-66
2023/04/19 08:15:07;;;;;;;5.35;3.47;;;;;;;12.71;73.18;100711.16;5052511;28;20546;-66
2023/04/19 08:17:33;;;;;;;6.32;3.50;;;;;;;12.88;71.70;100719.06;5052883;28;20099;-66
2023/04/19 08:19:59;;;;;;;4.63;3.00;;;;;;;13.00;71.94;100723.84;5052993;28;20037;-65
2023/04/19 08:22:24;;;;;;;4.88;3.30;;;;;;;13.07;71.73;100715.09;5052903;28;20051;-66
2023/04/19 08:24:50;;;;;;;5.60;3.10;;;;;;;13.13;72.61;100717.06;5051868;28;20036;-65
2023/04/19 08:27:16;;;;;;;8.00;4.25;;;;;;;13.24;71.36;100714.03;5051641;28;20383;-66
2023/04/19 08:29:42;;;;;;;7.50;3.92;;;;;;;13.11;71.19;100719.94;5052067;28;20071;-65
2023/04/19 08:32:08;;;;;;;5.70;3.53;;;;;;;13.50;70.55;100716.31;5051119;28;20122;-67
2023/04/19 08:34:35;;;;;;;5.82;3.67;;;;;;;13.56;67.27;100707.53;5051877;28;20052;-66
2023/04/19 08:37:01;;;;;;;4.40;3.50;;;;;;;13.72;67.86;100712.75;5052717;28;20037;-67
2023/04/19 08:39:27;;;;;;;4.75;3.35;;;;;;;13.84;69.72;100711.28;5052376;28;20087;-67
2023/04/19 08:41:55;;;;;;;5.07;3.30;;;;;;;13.54;68.71;100712.25;5050555;28;20421;-66
2023/04/19 08:44:22;;;;;;;5.50;3.25;;;;;;;13.99;67.74;100705.94;5052810;28;20593;-67
2023/04/19 08:46:49;;;;;;;4.85;3.20;;;;;;;14.09;65.54;100703.00;5051990;28;20037;-66
2023/04/19 08:49:15;;;;;;;4.27;3.13;;;;;;;14.35;65.28;100697.97;5051746;28;20124;-67
2023/04/19 08:51:42;;;;;;;6.28;3.20;;;;;;;14.10;64.98;100712.69;5052197;28;20033;-67
2023/04/19 08:54:09;;;;;;;6.20;3.78;;;;;;;13.99;65.02;100705.94;5050891;28;20033;-66
2023/04/19 08:56:35;;;;;;;4.60;2.97;;;;;;;14.11;65.38;100717.03;5051617;28;20037;-66
2023/04/19 08:59:00;;;;;;;5.30;3.53;;;;;;;13.80;65.89;100709.16;5051387;28;20056;-65
2023/04/19 09:01:26;;;;;;;3.80;3.20;;;;;;;13.88;66.50;100705.53;5051672;28;20116;-66
2023/04/19 09:03:51;;;;;;;5.80;3.20;;;;;;;13.76;67.31;100703.34;5051693;28;20029;-66
2023/04/19 09:06:17;;;;;;;4.90;3.05;;;;;;;13.70;67.03;100696.03;5051528;28;20465;-67
2023/04/19 09:08:42;;;;;;;5.25;3.28;;;;;;;13.81;66.70;100694.75;5053842;28;20490;-66
2023/04/19 09:11:08;;;;;;;4.70;3.10;;;;;;;13.90;65.75;100695.50;5054035;28;20040;-66
2023/04/19 09:13:37;;;;;;;4.97;3.38;;;;;;;13.87;64.96;100701.22;5055274;28;20094;-66
2023/04/19 09:16:03;;;;;;;5.10;3.17;;;;;;;13.82;64.51;100694.59;5055068;28;20037;-66
2023/04/19 09:18:29;;;;;;;4.82;3.00;;;;;;;13.77;62.94;100694.28;5055183;28;20115;-65
2023/04/19 09:20:58;;;;;;;4.25;2.97;;;;;;;13.68;62.26;100689.19;5055642;28;20500;-66
2023/04/19 09:23:27;;;;;;;5.68;3.22;;;;;;;13.67;63.04;100699.06;5055296;28;20045;-66
2023/04/19 09:26:00;;;;;;;4.57;3.03;;;;;;;13.55;63.50;100687.97;5055134;28;20061;-68
2023/04/19 09:28:26;;;;;;;4.72;3.35;;;;;;;13.63;63.69;100692.44;5055036;28;20041;-68
2023/04/19 09:30:53;;;;;;;6.90;3.55;;;;;;;13.65;64.23;100695.75;5056588;28;20386;-67
2023/04/19 09:33:32;;;;;;;4.10;3.25;;;;;;;13.57;65.06;100687.81;5054932;28;20109;-67
2023/04/19 09:35:58;;;;;;;4.50;3.05;;;;;;;13.55;65.60;100690.63;5054736;28;20061;-67
2023/04/19 09:38:23;;;;;;;4.53;2.85;;;;;;;13.50;66.13;100687.69;5055950;28;20122;-67
2023/04/19 09:40:49;;;;;;;4.70;3.13;;;;;;;13.50;67.68;100685.03;5054961;28;20108;-67
2023/04/19 09:43:23;;;;;;;5.22;2.95;;;;;;;13.51;68.09;100684.00;5054819;28;20119;-66
2023/04/19 09:45:48;;;;;;;6.45;3.10;;;;;;;13.49;67.05;100680.66;5055168;28;20517;-69
2023/04/19 09:48:14;;;;;;;4.93;3.03;;;;;;;13.34;67.57;100677.13;5054736;28;20041;-66
2023/04/19 09:50:54;;;;;;;5.53;3.70;;;;;;;13.09;68.54;100681.81;5054338;28;20079;-65
2023/04/19 09:53:20;;;;;;;4.82;3.63;;;;;;;13.12;68.71;100683.31;5054703;28;20079;-66
2023/04/19 09:55:46;;;;;;;4.03;2.95;;;;;;;13.15;69.04;100677.59;5054345;28;20505;-65
2023/04/19 09:58:12;;;;;;;4.40;2.60;;;;;;;13.35;66.47;100667.25;5053175;28;20080;-65
2023/04/19 10:00:39;;;;;;;6.38;3.72;;;;;;;13.35;66.47;100664.56;5067020;28;20115;-66
2023/04/19 10:03:08;;;;;;;3.97;3.22;;;;;;;13.60;66.61;100657.97;5074855;28;20036;-65
2023/04/19 10:05:35;;;;;;;3.33;2.90;;;;;;;13.64;66.14;100651.25;5072986;28;20044;-66
2023/04/19 10:08:02;;;;;;;3.83;2.70;;;;;;;14.11;63.23;100650.88;5074239;28;20032;-67
2023/04/19 10:10:29;;;;;;;3.58;2.42;;;;;;;14.35;60.68;100649.75;5074221;28;20059;-66
2023/04/19 10:12:56;;;;;;;4.82;3.03;;;;;;;14.43;60.41;100653.34;5074099;28;20486;-66
2023/04/19 10:15:22;;;;;;;6.88;3.08;;;;;;;14.37;62.43;100645.03;5073990;28;20044;-65
2023/04/19 10:17:48;;;;;;;4.35;3.25;;;;;;;14.61;61.75;100635.84;5073624;28;20075;-66
2023/04/19 10:20:24;;;;;;;4.57;2.97;;;;;;;14.72;61.09;100634.50;5073708;28;20060;-66
2023/04/19 10:22:50;;;;;;;3.28;2.35;;;;;;;15.01;58.55;100638.09;5072916;28;20032;-66
2023/04/19 10:25:15;;;;;;;4.00;2.70;;;;;;;14.86;59.59;100641.63;5073760;28;20501;-66
2023/04/19 10:27:45;;;;;;;4.65;2.83;;;;;;;14.69;59.92;100637.56;5073326;28;20068;-66
2023/04/19 10:30:17;;;;;;;3.70;2.67;;;;;;;14.34;60.91;100639.19;5073774;28;20093;-66
2023/04/19 10:32:50;;;;;;;4.00;2.65;;;;;;;14.30;62.87;100633.41;5056804;28;20040;-65
2023/04/19 10:35:21;;;;;;;4.07;2.83;;;;;;;14.30;62.08;100629.88;5053757;28;20041;-66
2023/04/19 10:38:05;;;;;;;3.85;2.40;;;;;;;14.27;63.26;100635.59;5053592;28;20512;-65
2023/04/19 10:40:49;;;;;;;3.50;2.55;;;;;;;14.12;63.54;100636.47;5053868;28;20037;-66
2023/04/19 10:43:18;;;;;;;4.85;2.85;;;;;;;13.89;63.57;100627.72;5053536;28;20035;-66
2023/04/19 10:45:45;;;;;;;3.92;2.70;;;;;;;13.52;66.47;100631.31;5053480;28;20041;-66
2023/04/19 10:48:26;;;;;;;4.97;3.00;;;;;;;13.68;65.95;100630.28;5053301;28;20509;-65
2023/04/19 10:50:57;;;;;;;3.50;2.72;;;;;;;13.66;67.26;100622.44;5053200;28;20856;-66
2023/04/19 10:53:42;;;;;;;6.63;3.13;;;;;;;13.78;66.30;100598.72;5053434;28;20076;-65
2023/04/19 10:56:08;;;;;;;5.43;2.90;;;;;;;13.97;66.54;100608.88;5053254;28;20021;-67
2023/04/19 10:59:06;;;;;;;3.30;2.83;;;;;;;14.24;63.72;100599.31;5052887;28;20076;-67
2023/04/19 11:01:39;;;;;;;3.42;2.67;;;;;;;14.00;64.71;100595.09;5053334;28;20393;-67
2023/04/19 11:04:05;;;;;;;3.47;2.75;;;;;;;13.75;66.72;100586.53;5053442;28;20482;-68
2023/04/19 11:06:32;;;;;;;3.75;2.58;;;;;;;14.09;66.01;100594.00;5068990;28;20085;-64
2023/04/19 11:08:58;;;;;;;4.00;2.63;;;;;;;14.22;65.29;100595.16;5052582;28;20068;-67
2023/04/19 11:11:27;;;;;;;4.32;2.63;;;;;;;13.92;66.66;100587.19;5053115;28;20297;-66
2023/04/19 11:13:54;;;;;;;4.70;3.15;;;;;;;13.96;65.49;100588.47;5052822;28;20045;-67
2023/04/19 11:16:19;;;;;;;5.07;3.20;;;;;;;13.93;66.31;100590.69;5052979;28;20041;-67
2023/04/19 11:18:45;;;;;;;3.83;2.55;;;;;;;13.80;66.92;100570.75;5052410;28;20087;-66
2023/04/19 11:21:13;;;;;;;3.80;3.03;;;;;;;14.00;66.91;100580.88;5052699;28;20071;-67
2023/04/19 11:23:39;;;;;;;5.07;3.25;;;;;;;13.77;69.48;100581.84;5053311;28;20087;-67
2023/04/19 11:26:09;;;;;;;3.55;2.78;;;;;;;13.65;69.69;100569.94;5053214;28;20029;-67
2023/04/19 11:28:34;;;;;;;5.13;3.30;;;;;;;13.61;73.59;100568.63;5052201;28;20041;-67
2023/04/19 11:31:00;;;;;;;4.05;2.90;;;;;;;13.77;68.65;100563.09;5051970;28;20128;-67
2023/04/19 11:33:26;;;;;;;4.38;2.78;;;;;;;13.90;68.72;100567.78;5052681;28;20037;-67
2023/04/19 11:35:51;;;;;;;3.63;2.65;;;;;;;13.88;68.85;100571.66;5051187;28;20047;-67
2023/04/19 11:38:17;;;;;;;3.80;2.83;;;;;;;13.69;67.86;100563.22;5052618;28;20037;-67
2023/04/19 11:40:42;;;;;;;5.35;2.90;;;;;;;13.74;68.91;100566.13;5051358;28;20375;-67
2023/04/19 11:43:07;;;;;;;4.85;3.03;;;;;;;13.62;68.72;100559.59;5052419;28;20079;-66
2023/04/19 11:45:35;;;;;;;4.68;2.75;;;;;;;13.39;72.43;100564.22;5052296;28;20421;-67
2023/04/19 11:48:03;;;;;;;4.30;2.90;;;;;;;13.34;71.72;100556.72;5067338;28;20024;-67
2023/04/19 11:50:39;;;;;;;4.07;2.75;;;;;;;13.22;71.64;100560.88;5051895;28;20049;-67
2023/04/19 11:53:12;;;;;;;3.75;2.60;;;;;;;13.25;72.41;100558.66;5052037;28;20123;-67
2023/04/19 11:55:37;;;;;;;3.35;2.45;;;;;;;13.12;72.06;100555.75;5051719;28;20037;-67
2023/04/19 11:58:08;;;;;;;3.53;2.72;;;;;;;13.28;72.59;100552.13;5051539;28;20032;-67
2023/04/19 12:00:34;;;;;;;4.00;2.47;;;;;;;13.27;72.54;100555.81;5067001;28;20126;-67
2023/04/19 12:03:00;;;;;;;3.22;2.50;;;;;;;13.22;72.84;100539.47;5051690;28;20041;-67
2023/04/19 12:05:25;;;;;;;3.10;2.72;;;;;;;12.86;75.96;100544.66;5067339;28;20086;-67
2023/04/19 12:08:00;;;;;;;4.68;2.90;;;;;;;13.02;75.99;100544.47;5051836;28;20120;-66
2023/04/19 12:10:26;;;;;;;3.03;2.60;;;;;;;12.84;78.00;100546.66;5049062;28;20501;-67
2023/04/19 12:12:51;;;;;;;4.15;2.92;;;;;;;12.82;79.03;100544.16;5051458;28;20037;-67
2023/04/19 12:15:17;;;;;;;3.33;2.45;;;;;;;12.85;81.76;100549.16;5051390;28;20146;-69
2023/04/19 12:18:00;;;;;;;3.38;2.38;;;;;;;12.95;83.17;100549.72;5051056;28;20045;-67
2023/04/19 12:20:34;;;;;;;4.78;3.00;;;;;;;12.19;88.94;100551.50;5048985;28;20504;-67
2023/04/19 12:22:59;;;;;;;3.13;2.50;;;;;;;12.27;90.63;100545.25;5051583;28;20064;-67
2023/04/19 12:25:33;;;;;;;9.23;3.17;;;;;;;12.56;89.59;100549.88;5051434;28;20025;-66
2023/04/19 12:28:02;;;;;;;4.95;3.28;;;;;;;12.35;91.71;100547.88;5051006;28;20398;-66
2023/04/19 12:30:28;;;;;;;5.15;3.08;;;;;;;12.43;90.07;100539.78;5049145;28;20167;-67
2023/04/19 12:32:56;;;;;;;5.05;3.10;;;;;;;12.22;92.09;100534.28;5050130;28;20123;-66
2023/04/19 12:35:24;;;;;;;4.70;3.10;;;;;;;12.28;90.81;100535.41;5051202;28;20091;-66
2023/04/19 12:37:51;;;;;;;4.10;3.00;;;;;;;12.23;91.38;100535.94;5051343;28;20390;-66
2023/04/19 12:40:16;;;;;;;4.03;2.92;;;;;;;11.99;92.64;100542.25;5051718;28;20382;-66
2023/04/19 12:42:41;;;;;;;4.53;3.22;;;;;;;11.95;93.25;100536.44;5051002;28;20029;-67
2023/04/19 12:45:07;;;;;;;4.07;3.03;;;;;;;12.07;95.29;100538.72;5070961;28;20040;-66
2023/04/19 12:47:33;;;;;;;4.40;3.47;;;;;;;11.85;94.26;100534.97;5070505;28;20041;-66
2023/04/19 12:49:59;;;;;;;4.75;3.40;;;;;;;11.94;94.96;100533.94;5054052;28;20033;-67
2023/04/19 12:52:25;;;;;;;6.13;3.83;;;;;;;11.85;95.89;100534.97;5055369;28;20055;-67
2023/04/19 12:54:50;;;;;;;4.43;3.42;;;;;;;11.92;96.04;100541.28;5055265;28;20089;-67
2023/04/19 12:57:15;;;;;;;5.53;3.80;;;;;;;11.75;96.44;100539.69;5055157;28;20401;-67
2023/04/19 12:59:41;;;;;;;5.05;3.80;;;;;;;11.82;96.41;100530.84;5055509;28;20044;-67
2023/04/19 13:02:06;;;;;;;5.80;4.22;;;;;;;11.76;94.88;100528.81;5055411;28;20040;-67
2023/04/19 13:04:32;;;;;;;5.63;3.38;;;;;;;11.74;95.91;100527.34;5055192;28;20040;-67
2023/04/19 13:06:57;;;;;;;5.28;3.50;;;;;;;11.86;95.21;100525.97;5070315;28;20436;-66
2023/04/19 13:09:23;;;;;;;4.32;3.45;;;;;;;11.91;95.92;100534.28;5055402;28;20040;-68
2023/04/19 13:11:48;;;;;;;5.25;3.42;;;;;;;11.94;94.24;100532.09;5055263;28;20056;-67
2023/04/19 13:14:14;;;;;;;6.13;4.00;;;;;;;11.95;94.31;100525.75;5054945;28;20037;-66
2023/04/19 13:16:39;;;;;;;6.20;4.15;;;;;;;12.00;93.55;100521.72;5070497;28;20075;-67
2023/04/19 13:19:05;;;;;;;5.97;3.88;;;;;;;11.99;93.23;100522.72;5054708;28;20401;-67
2023/04/19 13:21:30;;;;;;;5.80;4.25;;;;;;;11.92;92.90;100511.91;5055086;28;20121;-66
2023/04/19 13:23:59;;;;;;;5.45;3.85;;;;;;;11.81;94.11;100512.34;5070275;28;20032;-66
2023/04/19 13:26:25;;;;;;;6.93;4.40;;;;;;;11.79;93.94;100509.78;5052125;28;20119;-66
2023/04/19 13:28:50;;;;;;;8.27;5.95;;;;;;;11.74;93.94;100508.66;5054256;28;20060;-65
2023/04/19 13:31:16;;;;;;;5.53;4.43;;;;;;;11.87;93.46;100509.78;5054479;28;20386;-66
2023/04/19 13:33:41;;;;;;;5.22;4.20;;;;;;;11.73;95.26;100505.13;5070079;28;20048;-67
2023/04/19 13:36:06;;;;;;;5.05;4.28;;;;;;;11.67;97.20;100504.03;5054972;28;20029;-66
2023/04/19 13:38:32;;;;;;;7.13;4.53;;;;;;;11.64;99.01;100496.34;5055273;28;20037;-66
2023/04/19 13:40:58;;;;;;;6.60;4.35;;;;;;;11.71;98.96;100495.66;5054622;28;20481;-66
2023/04/19 13:43:23;;;;;;;6.47;4.40;;;;;;;11.68;99.63;100499.53;5054732;28;20512;-66
2023/04/19 13:45:49;;;;;;;7.20;4.65;;;;;;;11.59;100.00;100498.69;5055057;28;20444;-66
2023/04/19 13:48:14;;;;;;;7.15;4.43;;;;;;;11.65;99.91;100497.19;5069956;28;20041;-66
2023/04/19 13:50:40;;;;;;;7.32;4.70;;;;;;;11.63;99.50;100491.19;5055313;28;20052;-65
2023/04/19 13:53:05;;;;;;;8.07;4.85;;;;;;;11.52;100.00;100495.06;5054505;28;20524;-67
2023/04/19 13:55:31;;;;;;;6.95;5.05;;;;;;;11.49;100.00;100494.59;5054481;28;20390;-66
2023/04/19 13:57:56;;;;;;;7.65;5.13;;;;;;;11.49;100.00;100482.09;5054482;28;20060;-67
2023/04/19 14:00:22;;;;;;;5.78;4.60;;;;;;;11.49;99.38;100471.41;5054560;28;20116;-67
2023/04/19 14:02:47;;;;;;;7.60;5.18;;;;;;;11.42;100.00;100470.44;5054728;28;20448;-66
2023/04/19 14:05:12;;;;;;;8.00;5.03;;;;;;;11.45;100.00;100472.75;5056214;28;20029;-66
2023/04/19 14:07:39;;;;;;;8.63;5.20;;;;;;;11.48;100.00;100474.28;5056277;28;20047;-66
2023/04/19 14:10:06;;;;;;;6.82;4.68;;;;;;;11.43;100.00;100461.44;5057373;28;20068;-67
2023/04/19 14:12:31;;;;;;;9.98;4.80;;;;;;;11.46;100.00;100455.75;5055617;28;20481;-66
2023/04/19 14:14:57;;;;;;;7.07;5.20;;;;;;;11.44;100.00;100451.59;5054794;28;20032;-66
2023/04/19 14:17:22;;;;;;;7.72;5.20;;;;;;;11.36;100.00;100441.81;5055700;28;20474;-67
2023/04/19 14:19:48;;;;;;;9.38;5.18;;;;;;;11.32;100.00;100440.47;5055564;28;20035;-67
2023/04/19 14:22:15;;;;;;;7.10;4.47;;;;;;;11.40;100.00;100445.78;5055456;28;20397;-66
2023/04/19 14:24:41;;;;;;;8.48;5.20;;;;;;;11.41;100.00;100437.63;5054221;28;20112;-67
2023/04/19 14:27:06;;;;;;;8.35;5.32;;;;;;;11.49;100.00;100439.41;5053454;28;20076;-66
2023/04/19 14:29:32;;;;;;;7.53;4.82;;;;;;;11.36;100.00;100433.81;5054365;28;20047;-66
2023/04/19 14:31:58;;;;;;;7.53;5.00;;;;;;;11.25;100.00;100427.00;5054348;28;20029;-67
2023/04/19 14:34:24;;;;;;;7.32;5.38;;;;;;;11.44;100.00;100419.59;5055518;28;20047;-66
2023/04/19 14:36:49;;;;;;;7.93;5.10;;;;;;;11.40;100.00;100413.75;5055089;28;20040;-66
2023/04/19 14:39:15;;;;;;;7.80;4.72;;;;;;;11.53;100.00;100423.88;5055007;28;20040;-66
2023/04/19 14:41:40;;;;;;;9.13;5.18;;;;;;;11.64;100.00;100416.31;5072027;28;20037;-65
2023/04/19 14:44:05;;;;;;;7.35;4.93;;;;;;;11.71;100.00;100418.28;5054468;28;20033;-66
2023/04/19 14:46:31;;;;;;;7.50;4.70;;;;;;;11.81;96.95;100411.75;5053028;28;20033;-66
2023/04/19 14:49:02;;;;;;;7.45;4.63;;;;;;;12.00;94.35;100415.78;5053230;28;20129;-66
2023/04/19 14:51:28;;;;;;;10.55;5.57;;;;;;;11.95;92.94;100402.97;5053458;28;20053;-66
2023/04/19 14:53:53;;;;;;;7.72;4.22;;;;;;;12.08;92.44;100405.03;5053379;28;20094;-66
2023/04/19 14:56:19;;;;;;;5.95;4.35;;;;;;;12.23;91.33;100400.56;5053391;28;20040;-65
2023/04/19 14:58:44;;;;;;;7.82;4.30;;;;;;;12.27;90.73;100394.88;5053853;28;20040;-66
2023/04/19 15:01:11;;;;;;;6.80;4.38;;;;;;;12.37;88.27;100390.91;5052150;28;20029;-66
2023/04/19 15:03:36;;;;;;;7.57;4.70;;;;;;;12.41;88.41;100378.03;5053513;28;20037;-67
2023/04/19 15:06:03;;;;;;;6.80;4.00;;;;;;;12.39;89.61;100372.88;5052331;28;20041;-66
2023/04/19 15:08:28;;;;;;;7.13;5.10;;;;;;;12.37;88.22;100368.72;5052750;28;20032;-66
2023/04/19 15:10:54;;;;;;;7.85;4.38;;;;;;;12.38;88.16;100378.38;5052922;28;20406;-66
2023/04/19 15:13:19;;;;;;;6.05;4.47;;;;;;;12.58;87.44;100376.00;5052875;28;20045;-66
2023/04/19 15:15:44;;;;;;;8.70;5.03;;;;;;;12.72;87.59;100375.22;5052621;28;20036;-65
2023/04/19 15:18:10;;;;;;;6.30;4.65;;;;;;;12.71;87.99;100371.72;5052454;28;20128;-66
2023/04/19 15:20:35;;;;;;;7.05;4.50;;;;;;;12.87;86.50;100373.38;5052661;28;20038;-65
2023/04/19 15:23:01;;;;;;;6.15;4.05;;;;;;;12.88;84.52;100372.34;5052925;28;20402;-65
2023/04/19 15:25:26;;;;;;;7.22;4.07;;;;;;;13.04;80.27;100366.00;5053027;28;20052;-66
2023/04/19 15:27:52;;;;;;;6.68;3.85;;;;;;;13.13;79.12;100364.84;5052620;28;20041;-66
2023/04/19 15:30:17;;;;;;;6.97;4.10;;;;;;;13.09;79.24;100357.38;5052777;28;20036;-65
2023/04/19 15:32:42;;;;;;;5.22;3.88;;;;;;;13.18;78.76;100359.78;5052910;28;20049;-66
2023/04/19 15:35:08;;;;;;;6.10;4.07;;;;;;;13.17;78.58;100367.97;5053272;28;20037;-66
2023/04/19 15:37:33;;;;;;;4.68;3.70;;;;;;;13.27;76.84;100365.88;5051321;28;20037;-66
2023/04/19 15:39:59;;;;;;;4.55;3.30;;;;;;;13.38;75.99;100362.72;5053423;28;20048;-66
2023/04/19 15:42:25;;;;;;;5.60;3.97;;;;;;;13.26;75.68;100359.69;5053390;28;20068;-66
2023/04/19 15:44:50;;;;;;;5.82;3.78;;;;;;;13.29;77.26;100356.63;5052722;28;20033;-65